sensor_id;sensor_type;location;lat;lon;timestamp;P1;durP1;ratioP1;P2;durP2;ratioP2
52614;SDS011;38508;53.158;6.614;2023-01-15T00:03:45;19.20;;;12.20;;
52614;SDS011;38508;53.158;6.614;2023-01-15T00:06:11;17.33;;;13.13;;
52614;SDS011;38508;53.158;6.614;2023-01-15T00:08:36;19.38;;;15.48;;
52614;SDS011;38508;53.158;6.614;2023-01-15T00:11:05;18.35;;;9.98;;
52614;SDS011;38508;53.158;6.614;2023-01-15T00:13:30;19.10;;;16.08;;
52614;SDS011;38508;53.158;6.614;2023-01-15T00:16:03;20.25;;;17.83;;
52614;SDS011;38508;53.158;6.614;2023-01-15T00:18:34;21.25;;;17.92;;
52614;SDS011;38508;53.158;6.614;2023-01-15T00:21:00;19.83;;;16.08;;
52614;SDS011;38508;53.158;6.614;2023-01-15T00:23:28;24.73;;;17.85;;
52614;SDS011;38508;53.158;6.614;2023-01-15T00:26:13;19.23;;;17.27;;
52614;SDS011;38508;53.158;6.614;2023-01-15T00:28:59;20.10;;;13.30;;
52614;SDS011;38508;53.158;6.614;2023-01-15T00:31:25;17.40;;;15.60;;
52614;SDS011;38508;53.158;6.614;2023-01-15T00:33:51;19.75;;;15.70;;
52614;SDS011;38508;53.158;6.614;2023-01-15T00:36:17;18.02;;;12.90;;
52614;SDS011;38508;53.158;6.614;2023-01-15T00:38:43;18.90;;;14.43;;
52614;SDS011;38508;53.158;6.614;2023-01-15T00:41:08;17.88;;;16.17;;
52614;SDS011;38508;53.158;6.614;2023-01-15T00:43:34;17.08;;;14.32;;
52614;SDS011;38508;53.158;6.614;2023-01-15T00:45:59;20.20;;;13.88;;
52614;SDS011;38508;53.158;6.614;2023-01-15T00:48:26;16.33;;;14.02;;
52614;SDS011;38508;53.158;6.614;2023-01-15T00:50:52;17.73;;;11.95;;
52614;SDS011;38508;53.158;6.614;2023-01-15T00:53:17;19.90;;;12.05;;
52614;SDS011;38508;53.158;6.614;2023-01-15T00:55:43;16.08;;;11.77;;
52614;SDS011;38508;53.158;6.614;2023-01-15T00:58:08;19.95;;;11.75;;
52614;SDS011;38508;53.158;6.614;2023-01-15T01:00:34;15.30;;;12.40;;
52614;SDS011;38508;53.158;6.614;2023-01-15T01:03:00;26.95;;;14.77;;
52614;SDS011;38508;53.158;6.614;2023-01-15T01:05:25;20.20;;;13.13;;
52614;SDS011;38508;53.158;6.614;2023-01-15T01:07:51;14.77;;;10.95;;
52614;SDS011;38508;53.158;6.614;2023-01-15T01:10:17;24.70;;;13.88;;
52614;SDS011;38508;53.158;6.614;2023-01-15T01:12:42;20.90;;;12.43;;
52614;SDS011;38508;53.158;6.614;2023-01-15T01:15:08;17.40;;;13.80;;
52614;SDS011;38508;53.158;6.614;2023-01-15T01:17:37;21.70;;;10.95;;
52614;SDS011;38508;53.158;6.614;2023-01-15T01:20:03;15.73;;;12.45;;
52614;SDS011;38508;53.158;6.614;2023-01-15T01:22:29;16.17;;;11.50;;
52614;SDS011;38508;53.158;6.614;2023-01-15T01:24:57;18.42;;;10.85;;
52614;SDS011;38508;53.158;6.614;2023-01-15T01:27:23;16.27;;;12.65;;
52614;SDS011;38508;53.158;6.614;2023-01-15T01:29:49;20.88;;;12.38;;
52614;SDS011;38508;53.158;6.614;2023-01-15T01:32:14;22.42;;;12.77;;
52614;SDS011;38508;53.158;6.614;2023-01-15T01:34:40;23.42;;;13.43;;
52614;SDS011;38508;53.158;6.614;2023-01-15T01:37:06;22.45;;;12.40;;
52614;SDS011;38508;53.158;6.614;2023-01-15T01:39:31;19.25;;;12.77;;
52614;SDS011;38508;53.158;6.614;2023-01-15T01:41:57;20.05;;;10.52;;
52614;SDS011;38508;53.158;6.614;2023-01-15T01:47:01;18.35;;;12.40;;
52614;SDS011;38508;53.158;6.614;2023-01-15T01:49:32;14.73;;;12.30;;
52614;SDS011;38508;53.158;6.614;2023-01-15T01:52:02;17.95;;;11.07;;
52614;SDS011;38508;53.158;6.614;2023-01-15T01:54:32;21.90;;;10.70;;
52614;SDS011;38508;53.158;6.614;2023-01-15T01:57:01;19.58;;;10.63;;
52614;SDS011;38508;53.158;6.614;2023-01-15T01:59:28;20.90;;;10.25;;
52614;SDS011;38508;53.158;6.614;2023-01-15T02:01:54;19.17;;;10.07;;
52614;SDS011;38508;53.158;6.614;2023-01-15T02:04:20;17.98;;;7.05;;
52614;SDS011;38508;53.158;6.614;2023-01-15T02:06:49;17.58;;;8.70;;
52614;SDS011;38508;53.158;6.614;2023-01-15T02:09:15;16.90;;;9.75;;
52614;SDS011;38508;53.158;6.614;2023-01-15T02:11:41;16.25;;;8.80;;
52614;SDS011;38508;53.158;6.614;2023-01-15T02:16:47;13.55;;;9.43;;
52614;SDS011;38508;53.158;6.614;2023-01-15T02:28:27;22.00;;;8.18;;
52614;SDS011;38508;53.158;6.614;2023-01-15T02:31:05;17.75;;;8.38;;
52614;SDS011;38508;53.158;6.614;2023-01-15T02:33:40;19.17;;;6.82;;
52614;SDS011;38508;53.158;6.614;2023-01-15T02:36:20;21.45;;;8.98;;
52614;SDS011;38508;53.158;6.614;2023-01-15T02:38:48;19.70;;;8.60;;
52614;SDS011;38508;53.158;6.614;2023-01-15T02:41:17;16.77;;;6.43;;
52614;SDS011;38508;53.158;6.614;2023-01-15T02:46:21;17.92;;;8.05;;
52614;SDS011;38508;53.158;6.614;2023-01-15T02:48:51;20.20;;;9.40;;
52614;SDS011;38508;53.158;6.614;2023-01-15T02:51:21;16.38;;;6.53;;
52614;SDS011;38508;53.158;6.614;2023-01-15T02:53:50;19.23;;;6.68;;
52614;SDS011;38508;53.158;6.614;2023-01-15T02:56:22;16.45;;;8.40;;
52614;SDS011;38508;53.158;6.614;2023-01-15T02:58:53;14.18;;;5.03;;
52614;SDS011;38508;53.158;6.614;2023-01-15T03:01:57;15.73;;;6.13;;
52614;SDS011;38508;53.158;6.614;2023-01-15T03:04:33;21.63;;;7.05;;
52614;SDS011;38508;53.158;6.614;2023-01-15T03:07:15;17.45;;;6.47;;
52614;SDS011;38508;53.158;6.614;2023-01-15T03:09:44;17.20;;;8.10;;
52614;SDS011;38508;53.158;6.614;2023-01-15T03:12:17;16.65;;;6.28;;
52614;SDS011;38508;53.158;6.614;2023-01-15T03:14:51;18.02;;;8.05;;
52614;SDS011;38508;53.158;6.614;2023-01-15T03:17:33;18.92;;;9.30;;
52614;SDS011;38508;53.158;6.614;2023-01-15T03:20:14;18.52;;;6.85;;
52614;SDS011;38508;53.158;6.614;2023-01-15T03:22:45;18.67;;;7.63;;
52614;SDS011;38508;53.158;6.614;2023-01-15T03:25:18;21.55;;;7.10;;
52614;SDS011;38508;53.158;6.614;2023-01-15T03:27:47;24.13;;;6.32;;
52614;SDS011;38508;53.158;6.614;2023-01-15T03:30:18;23.05;;;7.30;;
52614;SDS011;38508;53.158;6.614;2023-01-15T03:32:45;21.63;;;8.75;;
52614;SDS011;38508;53.158;6.614;2023-01-15T03:38:08;16.90;;;6.30;;
52614;SDS011;38508;53.158;6.614;2023-01-15T03:40:36;15.60;;;7.50;;
52614;SDS011;38508;53.158;6.614;2023-01-15T03:43:12;18.85;;;7.70;;
52614;SDS011;38508;53.158;6.614;2023-01-15T03:46:01;18.27;;;5.95;;
52614;SDS011;38508;53.158;6.614;2023-01-15T03:49:08;17.13;;;6.18;;
52614;SDS011;38508;53.158;6.614;2023-01-15T03:54:20;15.85;;;6.13;;
52614;SDS011;38508;53.158;6.614;2023-01-15T03:57:07;12.38;;;4.80;;
52614;SDS011;38508;53.158;6.614;2023-01-15T03:59:50;13.77;;;4.68;;
52614;SDS011;38508;53.158;6.614;2023-01-15T04:02:18;15.75;;;3.30;;
52614;SDS011;38508;53.158;6.614;2023-01-15T04:04:46;19.10;;;3.20;;
52614;SDS011;38508;53.158;6.614;2023-01-15T04:07:13;10.13;;;2.85;;
52614;SDS011;38508;53.158;6.614;2023-01-15T04:09:39;20.67;;;3.33;;
52614;SDS011;38508;53.158;6.614;2023-01-15T04:12:05;20.42;;;3.92;;
52614;SDS011;38508;53.158;6.614;2023-01-15T04:14:31;20.35;;;4.40;;
52614;SDS011;38508;53.158;6.614;2023-01-15T04:16:58;18.80;;;3.92;;
52614;SDS011;38508;53.158;6.614;2023-01-15T04:19:23;9.60;;;3.38;;
52614;SDS011;38508;53.158;6.614;2023-01-15T04:21:49;24.58;;;3.70;;
52614;SDS011;38508;53.158;6.614;2023-01-15T04:24:14;19.13;;;4.93;;
52614;SDS011;38508;53.158;6.614;2023-01-15T04:26:40;13.95;;;3.63;;
52614;SDS011;38508;53.158;6.614;2023-01-15T04:29:06;21.10;;;3.90;;
52614;SDS011;38508;53.158;6.614;2023-01-15T04:31:31;15.75;;;3.30;;
52614;SDS011;38508;53.158;6.614;2023-01-15T04:33:59;10.73;;;3.00;;
52614;SDS011;38508;53.158;6.614;2023-01-15T04:36:24;14.82;;;3.20;;
52614;SDS011;38508;53.158;6.614;2023-01-15T04:38:50;18.25;;;3.28;;
52614;SDS011;38508;53.158;6.614;2023-01-15T04:41:15;15.23;;;3.38;;
52614;SDS011;38508;53.158;6.614;2023-01-15T04:44:01;15.68;;;3.50;;
52614;SDS011;38508;53.158;6.614;2023-01-15T04:46:30;20.92;;;4.00;;
52614;SDS011;38508;53.158;6.614;2023-01-15T04:48:57;21.60;;;3.35;;
52614;SDS011;38508;53.158;6.614;2023-01-15T04:51:23;16.08;;;3.25;;
52614;SDS011;38508;53.158;6.614;2023-01-15T04:53:48;16.38;;;3.45;;
52614;SDS011;38508;53.158;6.614;2023-01-15T04:56:14;14.45;;;2.70;;
52614;SDS011;38508;53.158;6.614;2023-01-15T04:58:40;18.75;;;3.30;;
52614;SDS011;38508;53.158;6.614;2023-01-15T05:01:10;14.57;;;2.83;;
52614;SDS011;38508;53.158;6.614;2023-01-15T05:03:40;16.10;;;3.13;;
52614;SDS011;38508;53.158;6.614;2023-01-15T05:06:07;16.10;;;3.35;;
52614;SDS011;38508;53.158;6.614;2023-01-15T05:08:33;19.35;;;3.25;;
52614;SDS011;38508;53.158;6.614;2023-01-15T05:11:00;18.08;;;3.15;;
52614;SDS011;38508;53.158;6.614;2023-01-15T05:13:27;13.43;;;3.10;;
52614;SDS011;38508;53.158;6.614;2023-01-15T05:15:54;21.73;;;3.42;;
52614;SDS011;38508;53.158;6.614;2023-01-15T05:18:20;23.67;;;3.45;;
52614;SDS011;38508;53.158;6.614;2023-01-15T05:20:45;15.40;;;3.08;;
52614;SDS011;38508;53.158;6.614;2023-01-15T05:23:11;16.10;;;3.20;;
52614;SDS011;38508;53.158;6.614;2023-01-15T05:25:37;21.77;;;3.50;;
52614;SDS011;38508;53.158;6.614;2023-01-15T05:28:03;23.85;;;3.65;;
52614;SDS011;38508;53.158;6.614;2023-01-15T05:30:28;18.40;;;2.83;;
52614;SDS011;38508;53.158;6.614;2023-01-15T05:32:54;15.07;;;2.97;;
52614;SDS011;38508;53.158;6.614;2023-01-15T05:35:20;16.70;;;2.63;;
52614;SDS011;38508;53.158;6.614;2023-01-15T05:37:45;18.00;;;3.70;;
52614;SDS011;38508;53.158;6.614;2023-01-15T05:40:11;18.38;;;3.42;;
52614;SDS011;38508;53.158;6.614;2023-01-15T05:42:37;16.80;;;2.72;;
52614;SDS011;38508;53.158;6.614;2023-01-15T05:45:03;15.93;;;3.45;;
52614;SDS011;38508;53.158;6.614;2023-01-15T05:47:28;20.58;;;2.97;;
52614;SDS011;38508;53.158;6.614;2023-01-15T05:49:54;15.85;;;3.30;;
52614;SDS011;38508;53.158;6.614;2023-01-15T05:52:20;13.30;;;2.45;;
52614;SDS011;38508;53.158;6.614;2023-01-15T05:54:47;17.13;;;2.45;;
52614;SDS011;38508;53.158;6.614;2023-01-15T05:57:13;17.67;;;2.47;;
52614;SDS011;38508;53.158;6.614;2023-01-15T05:59:39;12.00;;;2.03;;
52614;SDS011;38508;53.158;6.614;2023-01-15T06:02:05;18.50;;;2.90;;
52614;SDS011;38508;53.158;6.614;2023-01-15T06:04:30;16.17;;;2.20;;
52614;SDS011;38508;53.158;6.614;2023-01-15T06:06:56;12.05;;;2.15;;
52614;SDS011;38508;53.158;6.614;2023-01-15T06:09:22;23.35;;;2.35;;
52614;SDS011;38508;53.158;6.614;2023-01-15T06:11:49;8.95;;;1.90;;
52614;SDS011;38508;53.158;6.614;2023-01-15T06:14:15;12.65;;;2.42;;
52614;SDS011;38508;53.158;6.614;2023-01-15T06:16:41;8.18;;;1.67;;
52614;SDS011;38508;53.158;6.614;2023-01-15T06:19:07;9.98;;;1.85;;
52614;SDS011;38508;53.158;6.614;2023-01-15T06:21:35;9.50;;;1.63;;
52614;SDS011;38508;53.158;6.614;2023-01-15T06:24:00;8.93;;;1.50;;
52614;SDS011;38508;53.158;6.614;2023-01-15T06:26:26;9.02;;;1.52;;
52614;SDS011;38508;53.158;6.614;2023-01-15T06:28:52;15.35;;;1.73;;
52614;SDS011;38508;53.158;6.614;2023-01-15T06:31:19;13.48;;;2.20;;
52614;SDS011;38508;53.158;6.614;2023-01-15T06:33:46;10.55;;;2.20;;
52614;SDS011;38508;53.158;6.614;2023-01-15T06:36:13;17.58;;;2.28;;
52614;SDS011;38508;53.158;6.614;2023-01-15T06:38:41;12.32;;;2.33;;
52614;SDS011;38508;53.158;6.614;2023-01-15T06:41:09;14.70;;;2.65;;
52614;SDS011;38508;53.158;6.614;2023-01-15T06:44:04;13.45;;;2.50;;
52614;SDS011;38508;53.158;6.614;2023-01-15T06:46:50;15.98;;;2.55;;
52614;SDS011;38508;53.158;6.614;2023-01-15T06:49:35;13.10;;;2.25;;
52614;SDS011;38508;53.158;6.614;2023-01-15T06:52:02;15.80;;;2.30;;
52614;SDS011;38508;53.158;6.614;2023-01-15T06:54:28;17.58;;;3.15;;
52614;SDS011;38508;53.158;6.614;2023-01-15T06:56:54;11.30;;;2.58;;
52614;SDS011;38508;53.158;6.614;2023-01-15T06:59:20;18.40;;;2.33;;
52614;SDS011;38508;53.158;6.614;2023-01-15T07:01:45;15.38;;;2.67;;
52614;SDS011;38508;53.158;6.614;2023-01-15T07:04:11;14.15;;;3.08;;
52614;SDS011;38508;53.158;6.614;2023-01-15T07:06:37;15.45;;;2.03;;
52614;SDS011;38508;53.158;6.614;2023-01-15T07:09:03;13.70;;;2.72;;
52614;SDS011;38508;53.158;6.614;2023-01-15T07:11:29;9.10;;;2.15;;
52614;SDS011;38508;53.158;6.614;2023-01-15T07:13:54;12.07;;;2.25;;
52614;SDS011;38508;53.158;6.614;2023-01-15T07:16:36;14.60;;;2.30;;
52614;SDS011;38508;53.158;6.614;2023-01-15T07:19:02;10.85;;;1.50;;
52614;SDS011;38508;53.158;6.614;2023-01-15T07:21:28;15.98;;;1.77;;
52614;SDS011;38508;53.158;6.614;2023-01-15T07:23:57;11.18;;;2.08;;
52614;SDS011;38508;53.158;6.614;2023-01-15T07:26:23;11.43;;;1.65;;
52614;SDS011;38508;53.158;6.614;2023-01-15T07:28:48;10.35;;;1.70;;
52614;SDS011;38508;53.158;6.614;2023-01-15T07:31:14;15.63;;;1.85;;
52614;SDS011;38508;53.158;6.614;2023-01-15T07:33:40;13.55;;;1.58;;
52614;SDS011;38508;53.158;6.614;2023-01-15T07:36:06;9.63;;;1.90;;
52614;SDS011;38508;53.158;6.614;2023-01-15T07:38:31;11.80;;;1.73;;
52614;SDS011;38508;53.158;6.614;2023-01-15T07:40:57;12.60;;;1.85;;
52614;SDS011;38508;53.158;6.614;2023-01-15T07:43:42;15.13;;;1.73;;
52614;SDS011;38508;53.158;6.614;2023-01-15T07:46:26;13.80;;;2.20;;
52614;SDS011;38508;53.158;6.614;2023-01-15T07:49:11;12.35;;;1.95;;
52614;SDS011;38508;53.158;6.614;2023-01-15T07:51:55;11.20;;;1.92;;
52614;SDS011;38508;53.158;6.614;2023-01-15T07:54:21;10.70;;;1.60;;
52614;SDS011;38508;53.158;6.614;2023-01-15T07:56:47;12.02;;;1.92;;
52614;SDS011;38508;53.158;6.614;2023-01-15T07:59:13;11.38;;;1.80;;
52614;SDS011;38508;53.158;6.614;2023-01-15T08:01:39;10.30;;;1.25;;
52614;SDS011;38508;53.158;6.614;2023-01-15T08:04:04;15.02;;;2.00;;
52614;SDS011;38508;53.158;6.614;2023-01-15T08:06:30;9.65;;;1.33;;
52614;SDS011;38508;53.158;6.614;2023-01-15T08:08:56;11.65;;;2.10;;
52614;SDS011;38508;53.158;6.614;2023-01-15T08:11:21;17.13;;;1.40;;
52614;SDS011;38508;53.158;6.614;2023-01-15T08:14:07;13.63;;;1.45;;
52614;SDS011;38508;53.158;6.614;2023-01-15T08:16:52;12.43;;;1.70;;
52614;SDS011;38508;53.158;6.614;2023-01-15T08:19:18;7.53;;;1.38;;
52614;SDS011;38508;53.158;6.614;2023-01-15T08:21:44;13.27;;;1.60;;
52614;SDS011;38508;53.158;6.614;2023-01-15T08:24:09;10.63;;;1.50;;
52614;SDS011;38508;53.158;6.614;2023-01-15T08:26:35;9.80;;;1.48;;
52614;SDS011;38508;53.158;6.614;2023-01-15T08:29:01;15.55;;;2.15;;
52614;SDS011;38508;53.158;6.614;2023-01-15T08:31:26;12.85;;;1.92;;
52614;SDS011;38508;53.158;6.614;2023-01-15T08:33:52;12.98;;;2.20;;
52614;SDS011;38508;53.158;6.614;2023-01-15T08:36:18;10.45;;;1.50;;
52614;SDS011;38508;53.158;6.614;2023-01-15T08:38:43;7.03;;;1.42;;
52614;SDS011;38508;53.158;6.614;2023-01-15T08:41:09;15.20;;;1.88;;
52614;SDS011;38508;53.158;6.614;2023-01-15T08:43:35;12.52;;;2.20;;
52614;SDS011;38508;53.158;6.614;2023-01-15T08:46:02;11.05;;;1.35;;
52614;SDS011;38508;53.158;6.614;2023-01-15T08:48:29;11.75;;;1.98;;
52614;SDS011;38508;53.158;6.614;2023-01-15T08:50:56;18.40;;;1.70;;
52614;SDS011;38508;53.158;6.614;2023-01-15T08:53:22;12.10;;;2.25;;
52614;SDS011;38508;53.158;6.614;2023-01-15T08:55:48;15.45;;;2.10;;
52614;SDS011;38508;53.158;6.614;2023-01-15T08:58:14;9.13;;;1.90;;
52614;SDS011;38508;53.158;6.614;2023-01-15T09:00:42;11.02;;;2.05;;
52614;SDS011;38508;53.158;6.614;2023-01-15T09:03:08;15.25;;;2.30;;
52614;SDS011;38508;53.158;6.614;2023-01-15T09:05:35;14.23;;;2.10;;
52614;SDS011;38508;53.158;6.614;2023-01-15T09:08:02;13.73;;;1.80;;
52614;SDS011;38508;53.158;6.614;2023-01-15T09:10:28;10.32;;;1.95;;
52614;SDS011;38508;53.158;6.614;2023-01-15T09:12:57;13.93;;;2.13;;
52614;SDS011;38508;53.158;6.614;2023-01-15T09:15:23;16.83;;;2.63;;
52614;SDS011;38508;53.158;6.614;2023-01-15T09:17:49;9.20;;;2.05;;
52614;SDS011;38508;53.158;6.614;2023-01-15T09:20:14;10.15;;;1.73;;
52614;SDS011;38508;53.158;6.614;2023-01-15T09:22:40;14.93;;;2.05;;
52614;SDS011;38508;53.158;6.614;2023-01-15T09:25:06;11.63;;;2.33;;
52614;SDS011;38508;53.158;6.614;2023-01-15T09:27:32;11.23;;;2.53;;
52614;SDS011;38508;53.158;6.614;2023-01-15T09:29:58;11.45;;;2.55;;
52614;SDS011;38508;53.158;6.614;2023-01-15T09:32:24;9.93;;;2.00;;
52614;SDS011;38508;53.158;6.614;2023-01-15T09:34:50;13.50;;;1.83;;
52614;SDS011;38508;53.158;6.614;2023-01-15T09:37:15;10.18;;;2.00;;
52614;SDS011;38508;53.158;6.614;2023-01-15T09:39:41;14.40;;;2.15;;
52614;SDS011;38508;53.158;6.614;2023-01-15T09:48:00;15.88;;;2.10;;
52614;SDS011;38508;53.158;6.614;2023-01-15T09:51:17;12.77;;;1.85;;
52614;SDS011;38508;53.158;6.614;2023-01-15T09:53:30;9.00;;;1.95;;
52614;SDS011;38508;53.158;6.614;2023-01-15T09:56:04;18.05;;;2.90;;
52614;SDS011;38508;53.158;6.614;2023-01-15T09:58:37;7.35;;;2.30;;
52614;SDS011;38508;53.158;6.614;2023-01-15T10:01:04;10.95;;;2.25;;
52614;SDS011;38508;53.158;6.614;2023-01-15T10:03:41;15.63;;;2.70;;
52614;SDS011;38508;53.158;6.614;2023-01-15T10:06:23;10.65;;;2.20;;
52614;SDS011;38508;53.158;6.614;2023-01-15T10:08:57;16.30;;;2.72;;
52614;SDS011;38508;53.158;6.614;2023-01-15T10:11:38;11.63;;;2.28;;
52614;SDS011;38508;53.158;6.614;2023-01-15T10:14:49;9.10;;;2.35;;
52614;SDS011;38508;53.158;6.614;2023-01-15T10:20:26;17.52;;;2.30;;
52614;SDS011;38508;53.158;6.614;2023-01-15T10:25:50;12.63;;;2.42;;
52614;SDS011;38508;53.158;6.614;2023-01-15T10:28:31;15.10;;;2.42;;
52614;SDS011;38508;53.158;6.614;2023-01-15T10:31:16;11.68;;;2.20;;
52614;SDS011;38508;53.158;6.614;2023-01-15T10:36:49;20.70;;;2.72;;
52614;SDS011;38508;53.158;6.614;2023-01-15T10:42:20;8.77;;;1.50;;
52614;SDS011;38508;53.158;6.614;2023-01-15T10:45:12;10.98;;;1.73;;
52614;SDS011;38508;53.158;6.614;2023-01-15T10:47:39;13.60;;;1.90;;
52614;SDS011;38508;53.158;6.614;2023-01-15T10:50:18;10.40;;;1.40;;
52614;SDS011;38508;53.158;6.614;2023-01-15T10:52:47;11.15;;;2.45;;
52614;SDS011;38508;53.158;6.614;2023-01-15T10:55:18;12.38;;;2.08;;
52614;SDS011;38508;53.158;6.614;2023-01-15T10:58:00;14.30;;;2.00;;
52614;SDS011;38508;53.158;6.614;2023-01-15T11:00:31;13.50;;;2.00;;
52614;SDS011;38508;53.158;6.614;2023-01-15T11:03:03;14.90;;;2.78;;
52614;SDS011;38508;53.158;6.614;2023-01-15T11:05:39;9.88;;;1.85;;
52614;SDS011;38508;53.158;6.614;2023-01-15T11:08:12;10.27;;;1.73;;
52614;SDS011;38508;53.158;6.614;2023-01-15T11:10:46;12.65;;;2.35;;
52614;SDS011;38508;53.158;6.614;2023-01-15T11:13:20;14.10;;;2.47;;
52614;SDS011;38508;53.158;6.614;2023-01-15T11:16:18;13.02;;;2.03;;
52614;SDS011;38508;53.158;6.614;2023-01-15T11:21:55;11.50;;;1.83;;
52614;SDS011;38508;53.158;6.614;2023-01-15T11:24:20;18.00;;;2.58;;
52614;SDS011;38508;53.158;6.614;2023-01-15T11:26:47;19.55;;;2.40;;
52614;SDS011;38508;53.158;6.614;2023-01-15T11:29:24;13.85;;;2.08;;
52614;SDS011;38508;53.158;6.614;2023-01-15T11:31:54;15.95;;;2.00;;
52614;SDS011;38508;53.158;6.614;2023-01-15T11:34:20;16.40;;;2.17;;
52614;SDS011;38508;53.158;6.614;2023-01-15T11:36:47;18.17;;;3.22;;
52614;SDS011;38508;53.158;6.614;2023-01-15T11:39:25;29.80;;;2.28;;
52614;SDS011;38508;53.158;6.614;2023-01-15T11:42:02;15.05;;;2.28;;
52614;SDS011;38508;53.158;6.614;2023-01-15T11:44:55;15.77;;;2.60;;
52614;SDS011;38508;53.158;6.614;2023-01-15T11:47:50;16.30;;;2.42;;
52614;SDS011;38508;53.158;6.614;2023-01-15T11:50:37;19.70;;;2.25;;
52614;SDS011;38508;53.158;6.614;2023-01-15T11:53:17;11.05;;;1.88;;
52614;SDS011;38508;53.158;6.614;2023-01-15T11:55:50;16.83;;;2.13;;
52614;SDS011;38508;53.158;6.614;2023-01-15T11:58:32;10.02;;;1.80;;
52614;SDS011;38508;53.158;6.614;2023-01-15T12:01:12;16.58;;;3.10;;
52614;SDS011;38508;53.158;6.614;2023-01-15T12:03:45;11.82;;;2.50;;
52614;SDS011;38508;53.158;6.614;2023-01-15T12:06:11;15.73;;;2.20;;
52614;SDS011;38508;53.158;6.614;2023-01-15T12:08:45;18.70;;;3.03;;
52614;SDS011;38508;53.158;6.614;2023-01-15T12:11:28;16.73;;;2.60;;
52614;SDS011;38508;53.158;6.614;2023-01-15T12:22:28;13.57;;;3.03;;
52614;SDS011;38508;53.158;6.614;2023-01-15T12:25:02;20.48;;;4.07;;
52614;SDS011;38508;53.158;6.614;2023-01-15T12:31:03;15.23;;;3.30;;
52614;SDS011;38508;53.158;6.614;2023-01-15T12:36:23;20.15;;;4.15;;
52614;SDS011;38508;53.158;6.614;2023-01-15T12:39:03;11.57;;;4.13;;
52614;SDS011;38508;53.158;6.614;2023-01-15T12:41:51;19.35;;;4.40;;
52614;SDS011;38508;53.158;6.614;2023-01-15T12:44:54;17.65;;;4.38;;
52614;SDS011;38508;53.158;6.614;2023-01-15T12:50:38;23.27;;;7.40;;
52614;SDS011;38508;53.158;6.614;2023-01-15T12:55:35;13.82;;;8.13;;
52614;SDS011;38508;53.158;6.614;2023-01-15T12:58:10;15.07;;;10.32;;
52614;SDS011;38508;53.158;6.614;2023-01-15T13:00:45;15.82;;;12.18;;
52614;SDS011;38508;53.158;6.614;2023-01-15T13:05:55;15.60;;;13.52;;
52614;SDS011;38508;53.158;6.614;2023-01-15T13:08:38;26.02;;;15.90;;
52614;SDS011;38508;53.158;6.614;2023-01-15T13:11:10;18.63;;;13.93;;
52614;SDS011;38508;53.158;6.614;2023-01-15T13:13:38;16.25;;;14.07;;
52614;SDS011;38508;53.158;6.614;2023-01-15T13:19:48;15.65;;;12.30;;
52614;SDS011;38508;53.158;6.614;2023-01-15T13:22:14;12.10;;;10.90;;
52614;SDS011;38508;53.158;6.614;2023-01-15T13:33:20;15.75;;;11.80;;
52614;SDS011;38508;53.158;6.614;2023-01-15T13:35:52;11.20;;;10.32;;
52614;SDS011;38508;53.158;6.614;2023-01-15T13:38:26;12.00;;;11.00;;
52614;SDS011;38508;53.158;6.614;2023-01-15T13:40:54;10.75;;;9.90;;
52614;SDS011;38508;53.158;6.614;2023-01-15T13:43:35;9.10;;;8.15;;
52614;SDS011;38508;53.158;6.614;2023-01-15T13:46:04;11.60;;;9.20;;
52614;SDS011;38508;53.158;6.614;2023-01-15T13:48:33;14.35;;;10.52;;
52614;SDS011;38508;53.158;6.614;2023-01-15T13:51:06;12.70;;;9.18;;
52614;SDS011;38508;53.158;6.614;2023-01-15T13:53:46;14.63;;;11.40;;
52614;SDS011;38508;53.158;6.614;2023-01-15T13:56:23;13.50;;;10.63;;
52614;SDS011;38508;53.158;6.614;2023-01-15T13:58:58;12.68;;;11.40;;
52614;SDS011;38508;53.158;6.614;2023-01-15T14:04:02;12.55;;;11.35;;
52614;SDS011;38508;53.158;6.614;2023-01-15T14:07:01;16.35;;;10.98;;
52614;SDS011;38508;53.158;6.614;2023-01-15T14:22:10;19.23;;;11.95;;
52614;SDS011;38508;53.158;6.614;2023-01-15T14:24:41;17.83;;;11.77;;
52614;SDS011;38508;53.158;6.614;2023-01-15T14:27:17;17.38;;;11.15;;
52614;SDS011;38508;53.158;6.614;2023-01-15T14:30:03;17.50;;;10.55;;
52614;SDS011;38508;53.158;6.614;2023-01-15T14:35:20;18.00;;;10.48;;
52614;SDS011;38508;53.158;6.614;2023-01-15T14:37:48;18.63;;;10.18;;
52614;SDS011;38508;53.158;6.614;2023-01-15T14:40:29;12.90;;;9.45;;
52614;SDS011;38508;53.158;6.614;2023-01-15T14:43:05;14.27;;;9.00;;
52614;SDS011;38508;53.158;6.614;2023-01-15T14:45:38;21.17;;;9.98;;
52614;SDS011;38508;53.158;6.614;2023-01-15T14:51:06;21.75;;;10.18;;
52614;SDS011;38508;53.158;6.614;2023-01-15T14:53:38;21.10;;;10.60;;
52614;SDS011;38508;53.158;6.614;2023-01-15T14:56:22;15.65;;;10.82;;
52614;SDS011;38508;53.158;6.614;2023-01-15T14:59:45;18.15;;;10.07;;
52614;SDS011;38508;53.158;6.614;2023-01-15T15:02:16;19.25;;;8.98;;
52614;SDS011;38508;53.158;6.614;2023-01-15T15:04:52;17.02;;;8.70;;
52614;SDS011;38508;53.158;6.614;2023-01-15T15:07:24;17.27;;;9.27;;
52614;SDS011;38508;53.158;6.614;2023-01-15T15:10:06;19.42;;;11.07;;
52614;SDS011;38508;53.158;6.614;2023-01-15T15:12:43;18.85;;;11.10;;
52614;SDS011;38508;53.158;6.614;2023-01-15T15:23:37;14.73;;;9.90;;
52614;SDS011;38508;53.158;6.614;2023-01-15T15:26:05;28.42;;;13.18;;
52614;SDS011;38508;53.158;6.614;2023-01-15T15:28:54;20.73;;;12.75;;
52614;SDS011;38508;53.158;6.614;2023-01-15T15:31:23;26.17;;;12.20;;
52614;SDS011;38508;53.158;6.614;2023-01-15T15:33:51;14.10;;;9.57;;
52614;SDS011;38508;53.158;6.614;2023-01-15T15:36:19;20.00;;;9.55;;
52614;SDS011;38508;53.158;6.614;2023-01-15T15:39:00;21.67;;;9.50;;
52614;SDS011;38508;53.158;6.614;2023-01-15T15:41:31;16.85;;;9.60;;
52614;SDS011;38508;53.158;6.614;2023-01-15T15:44:25;22.10;;;10.80;;
52614;SDS011;38508;53.158;6.614;2023-01-15T15:47:21;20.83;;;8.23;;
52614;SDS011;38508;53.158;6.614;2023-01-15T15:50:17;15.57;;;7.57;;
52614;SDS011;38508;53.158;6.614;2023-01-15T15:52:44;14.68;;;7.80;;
52614;SDS011;38508;53.158;6.614;2023-01-15T15:55:13;23.02;;;9.45;;
52614;SDS011;38508;53.158;6.614;2023-01-15T15:57:40;22.25;;;9.65;;
52614;SDS011;38508;53.158;6.614;2023-01-15T16:00:10;17.58;;;10.98;;
52614;SDS011;38508;53.158;6.614;2023-01-15T16:02:46;26.80;;;10.82;;
52614;SDS011;38508;53.158;6.614;2023-01-15T16:05:22;14.23;;;9.30;;
52614;SDS011;38508;53.158;6.614;2023-01-15T16:07:50;19.95;;;8.50;;
52614;SDS011;38508;53.158;6.614;2023-01-15T16:10:30;15.98;;;9.05;;
52614;SDS011;38508;53.158;6.614;2023-01-15T16:12:57;21.15;;;9.23;;
52614;SDS011;38508;53.158;6.614;2023-01-15T16:15:27;13.63;;;8.13;;
52614;SDS011;38508;53.158;6.614;2023-01-15T16:17:57;12.98;;;6.63;;
52614;SDS011;38508;53.158;6.614;2023-01-15T16:20:25;12.95;;;6.68;;
52614;SDS011;38508;53.158;6.614;2023-01-15T16:22:55;9.48;;;6.20;;
52614;SDS011;38508;53.158;6.614;2023-01-15T16:25:24;12.23;;;5.55;;
52614;SDS011;38508;53.158;6.614;2023-01-15T16:27:57;13.27;;;5.75;;
52614;SDS011;38508;53.158;6.614;2023-01-15T16:30:24;10.45;;;5.65;;
52614;SDS011;38508;53.158;6.614;2023-01-15T16:32:50;10.80;;;4.90;;
52614;SDS011;38508;53.158;6.614;2023-01-15T16:37:45;9.63;;;4.10;;
52614;SDS011;38508;53.158;6.614;2023-01-15T16:40:55;12.00;;;4.50;;
52614;SDS011;38508;53.158;6.614;2023-01-15T16:43:07;8.35;;;4.20;;
52614;SDS011;38508;53.158;6.614;2023-01-15T16:48:31;10.70;;;3.03;;
52614;SDS011;38508;53.158;6.614;2023-01-15T16:53:46;11.13;;;4.43;;
52614;SDS011;38508;53.158;6.614;2023-01-15T16:58:51;12.85;;;5.35;;